createdAt,value
2022-11-28T00:01:12.099Z,9.2
2022-11-28T00:02:28.505Z,11.6
2022-11-28T00:03:44.909Z,10.4
2022-11-28T00:05:01.323Z,8.8
2022-11-28T00:07:34.156Z,11.9
2022-11-28T00:08:50.549Z,9.6
2022-11-28T00:10:06.967Z,14.5
2022-11-28T00:12:39.795Z,11.9
2022-11-28T00:13:56.203Z,11.6
2022-11-28T00:15:12.611Z,8.9
2022-11-28T00:16:28.127Z,7.6
2022-11-28T00:17:44.558Z,8.4
2022-11-28T00:19:00.956Z,8.5
2022-11-28T00:20:17.365Z,12.3
2022-11-28T00:21:33.778Z,8.7
2022-11-28T00:22:50.190Z,11.1
2022-11-28T00:24:06.592Z,11.4
2022-11-28T00:25:23.004Z,9.1
2022-11-28T00:26:39.427Z,8.5
2022-11-28T00:27:55.821Z,11.8
2022-11-28T00:29:12.232Z,12.5
2022-11-28T00:30:28.649Z,9.1
2022-11-28T00:31:45.056Z,9.8
2022-11-28T00:33:00.596Z,13.5
2022-11-28T00:34:16.147Z,9.6
2022-11-28T00:35:31.680Z,10.6
2022-11-28T00:36:48.094Z,13.8
2022-11-28T00:38:04.490Z,10
2022-11-28T00:39:20.913Z,11.6
2022-11-28T00:40:37.319Z,9.6
2022-11-28T00:43:10.126Z,14
2022-11-28T00:44:26.552Z,10.3
2022-11-28T00:45:42.951Z,11.9
2022-11-28T00:48:15.781Z,10.5
2022-11-28T00:49:32.195Z,10.8
2022-11-28T00:50:48.602Z,10.7
2022-11-28T00:52:04.146Z,11.9
2022-11-28T00:53:19.683Z,14
2022-11-28T00:54:36.090Z,11.2
2022-11-28T00:55:52.492Z,12.1
2022-11-28T00:57:08.902Z,12.8
2022-11-28T00:59:41.717Z,11.6
2022-11-28T01:00:58.142Z,10.5
2022-11-28T01:02:14.554Z,12.5
2022-11-28T01:03:30.960Z,11
2022-11-28T01:04:47.370Z,10.7
2022-11-28T01:06:03.773Z,11.3
2022-11-28T01:07:20.198Z,13.3
2022-11-28T01:08:36.612Z,12.3
2022-11-28T01:09:52.145Z,11.2
2022-11-28T01:11:08.535Z,11.4
2022-11-28T01:12:24.962Z,13.7
2022-11-28T01:13:41.356Z,12.7
2022-11-28T01:14:57.774Z,11
2022-11-28T01:16:14.181Z,18.1
2022-11-28T01:17:30.607Z,12.1
2022-11-28T01:18:46.997Z,13.6
2022-11-28T01:20:02.556Z,11.3
2022-11-28T01:21:18.976Z,15.2
2022-11-28T01:22:34.501Z,12.8
2022-11-28T01:23:50.902Z,13.4
2022-11-28T01:25:07.312Z,12.1
2022-11-28T01:26:23.729Z,12.5
2022-11-28T01:27:40.142Z,10.7
2022-11-28T01:28:56.555Z,12
2022-11-28T01:30:12.966Z,11.6
2022-11-28T01:31:29.380Z,15.3
2022-11-28T01:32:45.770Z,11.6
2022-11-28T01:34:02.190Z,12.9
2022-11-28T01:35:17.753Z,13.6
2022-11-28T01:36:33.281Z,11.7
2022-11-28T01:37:49.694Z,13.3
2022-11-28T01:39:06.100Z,12.1
2022-11-28T01:40:22.510Z,10.7
2022-11-28T01:41:38.918Z,10.5
2022-11-28T01:42:55.328Z,11.4
2022-11-28T01:44:11.739Z,11.6
2022-11-28T01:45:28.152Z,10.3
2022-11-28T01:46:44.552Z,9.4
2022-11-28T01:48:00.959Z,8.8
2022-11-28T01:49:17.371Z,12.7
2022-11-28T01:50:33.799Z,12.2
2022-11-28T01:51:50.195Z,13.6
2022-11-28T01:53:05.728Z,9.7
2022-11-28T01:54:22.145Z,12
2022-11-28T01:55:38.563Z,13.9
2022-11-28T01:56:54.956Z,12.5
2022-11-28T01:58:11.378Z,16.7
2022-11-28T01:59:27.792Z,11.3
2022-11-28T02:00:44.198Z,12
2022-11-28T02:02:00.594Z,11
2022-11-28T02:03:17.005Z,12.4
2022-11-28T02:04:33.430Z,14
2022-11-28T02:05:49.842Z,13.3
2022-11-28T02:07:06.241Z,11.4
2022-11-28T02:08:22.651Z,12.5
2022-11-28T02:09:39.060Z,10.5
2022-11-28T02:10:54.599Z,16.3
2022-11-28T02:12:11.004Z,14.3
2022-11-28T02:13:27.417Z,11.9
2022-11-28T02:14:43.830Z,12.5
2022-11-28T02:16:00.236Z,14.8
2022-11-28T02:17:16.644Z,13.7
2022-11-28T02:18:33.065Z,16.7
2022-11-28T02:19:49.470Z,13.9
2022-11-28T02:21:05.871Z,9.9
2022-11-28T02:22:22.290Z,12.3
2022-11-28T02:23:38.693Z,12.8
2022-11-28T02:26:11.518Z,13.3
2022-11-28T02:27:27.050Z,12.6
2022-11-28T02:31:16.276Z,12.5
2022-11-28T02:32:32.694Z,11
2022-11-28T02:33:49.099Z,13.1
2022-11-28T02:35:05.516Z,11.4
2022-11-28T02:36:21.066Z,13.9
2022-11-28T02:37:37.484Z,15.4
2022-11-28T02:40:09.413Z,25.8
2022-11-28T02:41:25.836Z,34.5
2022-11-28T02:42:42.222Z,29
2022-11-28T02:43:58.646Z,27
2022-11-28T02:45:15.066Z,31.2
2022-11-28T02:46:31.460Z,39.2
2022-11-28T02:47:47.875Z,35
2022-11-28T02:49:04.280Z,33.3
2022-11-28T02:50:20.708Z,26.7
2022-11-28T02:51:36.232Z,30.3
2022-11-28T02:52:52.628Z,17.4
2022-11-28T02:54:09.057Z,19.7
2022-11-28T02:56:41.865Z,16
2022-11-28T02:57:58.290Z,18.9
2022-11-28T02:59:13.829Z,20.8
2022-11-28T03:00:30.246Z,17.9
2022-11-28T03:01:45.774Z,16.5
2022-11-28T03:03:02.181Z,19.1
2022-11-28T03:05:35.004Z,25.1
2022-11-28T03:06:51.412Z,24.1
2022-11-28T03:08:07.818Z,20.1
2022-11-28T03:09:24.236Z,16.8
2022-11-28T03:10:40.641Z,19.8
2022-11-28T03:11:57.051Z,17.3
2022-11-28T03:13:13.474Z,21.1
2022-11-28T03:14:29.882Z,18.8
2022-11-28T03:15:46.279Z,13.8
2022-11-28T03:17:02.708Z,19.5
2022-11-28T03:18:18.230Z,17.2
2022-11-28T03:20:51.056Z,31.5
2022-11-28T03:22:07.451Z,18.8
2022-11-28T03:23:23.875Z,18.3
2022-11-28T03:24:40.279Z,18.3
2022-11-28T03:25:56.687Z,22.3
2022-11-28T03:27:13.100Z,16.3
2022-11-28T03:28:29.512Z,17
2022-11-28T03:29:45.928Z,17.7
2022-11-28T03:31:02.337Z,14.5
2022-11-28T03:32:18.737Z,16.4
2022-11-28T03:33:35.143Z,16
2022-11-28T03:34:50.706Z,16.4
2022-11-28T03:36:07.111Z,18.9
2022-11-28T03:37:23.524Z,15.4
2022-11-28T03:38:39.048Z,14.7
2022-11-28T03:39:55.473Z,13.9
2022-11-28T03:41:11.866Z,15.7
2022-11-28T03:42:28.290Z,13.6
2022-11-28T03:43:44.706Z,12.7
2022-11-28T03:45:01.105Z,14.7
2022-11-28T03:46:17.517Z,17.8
2022-11-28T03:47:33.935Z,14.7
2022-11-28T03:48:50.337Z,15
2022-11-28T03:51:22.296Z,13.1
2022-11-28T03:52:38.701Z,12.2
2022-11-28T03:53:55.125Z,10.7
2022-11-28T03:55:11.525Z,10.4
2022-11-28T03:56:27.053Z,9.8
2022-11-28T03:57:43.457Z,12.6
2022-11-28T03:58:59.885Z,13.3
2022-11-28T04:00:16.285Z,13.3
2022-11-28T04:02:49.115Z,10.2
2022-11-28T04:04:05.512Z,13.5
2022-11-28T04:05:21.924Z,14.6
2022-11-28T04:06:38.344Z,12.3
2022-11-28T04:07:54.757Z,13.8
2022-11-28T04:09:11.164Z,10.2
2022-11-28T04:11:43.976Z,14.1
2022-11-28T04:12:59.531Z,10.5
2022-11-28T04:14:15.946Z,17
2022-11-28T04:15:32.348Z,16
2022-11-28T04:16:48.773Z,17.6
2022-11-28T04:18:05.185Z,18.4
2022-11-28T04:19:21.582Z,20.8
2022-11-28T04:23:09.934Z,14
2022-11-28T04:24:26.350Z,19.7
2022-11-28T04:25:42.756Z,14.7
2022-11-28T04:26:59.174Z,13.5
2022-11-28T04:28:15.580Z,13
2022-11-28T04:29:31.982Z,13.5
2022-11-28T04:32:04.801Z,11.6
2022-11-28T04:33:21.217Z,16.5
2022-11-28T04:34:37.626Z,12.4
2022-11-28T04:35:54.044Z,10.1
2022-11-28T04:37:10.440Z,13
2022-11-28T04:38:26.855Z,14.6
2022-11-28T04:39:43.275Z,11.4
2022-11-28T04:40:58.802Z,11.8
2022-11-28T04:42:15.211Z,9.8
2022-11-28T04:44:48.039Z,12.7
2022-11-28T04:46:04.445Z,12.2
2022-11-28T04:47:20.856Z,10.3
2022-11-28T04:48:37.269Z,11.5
2022-11-28T04:49:53.674Z,8.8
2022-11-28T04:51:10.084Z,8.9
2022-11-28T04:52:26.493Z,9.4
2022-11-28T04:53:42.898Z,9.1
2022-11-28T04:54:59.308Z,11
2022-11-28T04:56:15.718Z,10.1
2022-11-28T04:57:31.260Z,11.7
2022-11-28T04:58:47.657Z,8.1
2022-11-28T05:00:04.063Z,9.7
2022-11-28T05:01:19.617Z,12.5
2022-11-28T05:02:35.151Z,10.1
2022-11-28T05:03:51.570Z,8.6
2022-11-28T05:05:07.974Z,6.9
2022-11-28T05:06:24.383Z,11.5
2022-11-28T05:07:40.802Z,9.3
2022-11-28T05:08:57.216Z,8.3
2022-11-28T05:10:13.613Z,12.3
2022-11-28T05:12:46.430Z,10.1
2022-11-28T05:14:02.855Z,9.2
2022-11-28T05:15:19.254Z,8.8
2022-11-28T05:16:35.676Z,12.4
2022-11-28T05:17:52.085Z,10.9
2022-11-28T05:19:07.619Z,10
2022-11-28T05:20:24.015Z,8.7
2022-11-28T05:22:56.849Z,8.8
2022-11-28T05:24:12.394Z,9.3
2022-11-28T05:25:28.804Z,7.7
2022-11-28T05:26:44.333Z,11.2
2022-11-28T05:28:00.737Z,9.8
2022-11-28T05:29:17.155Z,11.4
2022-11-28T05:30:33.573Z,13.6
2022-11-28T05:31:49.980Z,11.7
2022-11-28T05:33:06.386Z,8.3
2022-11-28T05:34:22.788Z,8.1
2022-11-28T05:35:39.203Z,8.8
2022-11-28T05:36:55.618Z,8.2
2022-11-28T05:38:11.176Z,10.9
2022-11-28T05:42:00.393Z,7.8
2022-11-28T05:43:15.939Z,11
2022-11-28T05:44:32.333Z,9.8
2022-11-28T05:45:48.749Z,8.7
2022-11-28T05:48:21.579Z,9.5
2022-11-28T05:49:37.978Z,15.2
2022-11-28T05:50:54.391Z,11.3
2022-11-28T05:53:27.202Z,10.1
2022-11-28T05:54:43.612Z,9.8
2022-11-28T05:56:00.024Z,10.7
2022-11-28T05:57:16.431Z,9.1
2022-11-28T05:58:31.996Z,9.5
2022-11-28T05:59:48.413Z,11.5
2022-11-28T06:01:04.815Z,12.4
2022-11-28T06:03:37.632Z,8.9
2022-11-28T06:04:54.053Z,11.4
2022-11-28T06:06:10.456Z,9.8
2022-11-28T06:07:25.983Z,12.2
2022-11-28T06:08:42.401Z,7.8
2022-11-28T06:09:58.808Z,9.8
2022-11-28T06:11:15.208Z,9
2022-11-28T06:12:31.630Z,9.8
2022-11-28T06:13:48.029Z,8.9
2022-11-28T06:15:04.437Z,9.7
2022-11-28T06:16:20.851Z,9
2022-11-28T06:18:53.683Z,12
2022-11-28T06:20:10.095Z,10.8
2022-11-28T06:21:26.488Z,13
2022-11-28T06:22:42.898Z,10.8
2022-11-28T06:23:58.443Z,10.9
2022-11-28T06:25:14.852Z,9.5
2022-11-28T06:26:31.250Z,11.8
2022-11-28T06:29:04.085Z,9.8
2022-11-28T06:30:20.490Z,10.6
2022-11-28T06:31:36.904Z,13.6
2022-11-28T06:32:53.317Z,11.3
2022-11-28T06:34:09.720Z,9.4
2022-11-28T06:35:26.121Z,9.8
2022-11-28T06:36:42.543Z,13.4
2022-11-28T06:39:15.360Z,10.2
2022-11-28T06:40:30.891Z,10.2
2022-11-28T06:41:47.304Z,9.9
2022-11-28T06:44:20.120Z,12.3
2022-11-28T06:45:36.527Z,11.9
2022-11-28T06:46:52.943Z,12.2
2022-11-28T06:49:25.757Z,10.1
2022-11-28T06:50:42.164Z,9.9
2022-11-28T06:51:58.581Z,10.2
2022-11-28T06:54:31.404Z,8.7
2022-11-28T06:55:47.803Z,13.5
2022-11-28T06:57:04.212Z,11.4
2022-11-28T06:58:20.632Z,12.9
2022-11-28T06:59:36.168Z,12.1
2022-11-28T07:00:52.575Z,10.3
2022-11-28T07:02:08.994Z,12.5
2022-11-28T07:03:25.405Z,12.1
2022-11-28T07:04:41.813Z,8.9
2022-11-28T07:05:58.214Z,12
2022-11-28T07:07:14.633Z,11.4
2022-11-28T07:08:30.149Z,13.7
2022-11-28T07:09:46.557Z,11.5
2022-11-28T07:11:02.979Z,13.2
2022-11-28T07:12:19.394Z,9.6
2022-11-28T07:14:52.214Z,13.7
2022-11-28T07:16:08.608Z,10.7
2022-11-28T07:17:25.028Z,9.7
2022-11-28T07:18:41.434Z,12.3
2022-11-28T07:19:57.845Z,11.3
2022-11-28T07:21:13.396Z,11.6
2022-11-28T07:22:29.805Z,11.6
2022-11-28T07:23:46.219Z,10.4
2022-11-28T07:25:01.760Z,13.6
2022-11-28T07:26:18.155Z,11
2022-11-28T07:27:34.579Z,10.3
2022-11-28T07:28:50.975Z,10.6
2022-11-28T07:30:07.399Z,15.5
2022-11-28T07:31:23.806Z,15.8
2022-11-28T07:32:40.212Z,12.7
2022-11-28T07:33:56.614Z,10.7
2022-11-28T07:35:12.181Z,12.3
2022-11-28T07:36:27.704Z,11.4
2022-11-28T07:37:44.125Z,14.1
2022-11-28T07:39:00.532Z,12.2
2022-11-28T07:42:49.751Z,14.7
2022-11-28T07:44:06.155Z,13.6
2022-11-28T07:45:22.567Z,12.8
2022-11-28T07:46:38.985Z,9.5
2022-11-28T07:47:55.391Z,16.6
2022-11-28T07:50:28.223Z,12.2
2022-11-28T07:51:44.618Z,15
2022-11-28T07:53:00.174Z,11.7
2022-11-28T07:54:16.585Z,17.4
2022-11-28T07:55:32.123Z,12
2022-11-28T07:56:48.526Z,12.5
2022-11-28T07:58:04.947Z,11.5
2022-11-28T08:00:37.762Z,13.2
2022-11-28T08:01:54.169Z,13.4
2022-11-28T08:03:10.587Z,15.2
2022-11-28T08:05:43.401Z,11.6
2022-11-28T08:08:16.207Z,13.8
2022-11-28T08:09:32.627Z,13.1
2022-11-28T08:10:48.195Z,11.6
2022-11-28T08:12:04.584Z,16.5
2022-11-28T08:13:20.994Z,12.1
2022-11-28T08:14:37.415Z,13.3
2022-11-28T08:15:53.819Z,16.9
2022-11-28T08:17:09.357Z,13.9
2022-11-28T08:18:25.764Z,16.6
2022-11-28T08:19:42.182Z,11.9
2022-11-28T08:20:58.594Z,12.2
2022-11-28T08:22:14.999Z,13.3
2022-11-28T08:23:31.414Z,12.2
2022-11-28T08:26:03.362Z,15.5
2022-11-28T08:27:19.775Z,14.9
2022-11-28T08:28:36.176Z,14.6
2022-11-28T08:29:51.708Z,11.9
2022-11-28T08:31:08.130Z,13.8
2022-11-28T08:32:24.539Z,11.8
2022-11-28T08:33:40.954Z,16.7
2022-11-28T08:34:57.355Z,11.5
2022-11-28T08:37:30.176Z,16.1
2022-11-28T08:38:46.590Z,13.8
2022-11-28T08:40:02.999Z,14.4
2022-11-28T08:41:19.398Z,13.4
2022-11-28T08:42:35.828Z,17.1
2022-11-28T08:43:52.234Z,13.3
2022-11-28T08:46:25.059Z,14.7
2022-11-28T08:47:40.589Z,13.5
2022-11-28T08:48:56.989Z,11.4
2022-11-28T08:50:13.406Z,11.9
2022-11-28T08:51:29.820Z,12.9
2022-11-28T08:52:46.225Z,17.2
2022-11-28T08:54:02.639Z,14.1
2022-11-28T08:55:19.043Z,14.8
2022-11-28T08:56:35.441Z,14.5
2022-11-28T08:57:51.857Z,14.7
2022-11-28T08:59:08.271Z,12
2022-11-28T09:00:24.687Z,11.5
2022-11-28T09:01:41.098Z,13.8
2022-11-28T09:02:57.497Z,14.6
2022-11-28T09:04:13.899Z,12.9
2022-11-28T09:08:03.142Z,12.9
2022-11-28T09:09:18.679Z,12.1
2022-11-28T09:11:51.493Z,11.3
2022-11-28T09:14:24.303Z,14.3
2022-11-28T09:16:57.121Z,15.5
2022-11-28T09:18:13.551Z,11.7
2022-11-28T09:22:02.766Z,16
2022-11-28T09:23:19.173Z,11.2
2022-11-28T09:24:35.600Z,12.6
2022-11-28T09:25:51.131Z,13.6
2022-11-28T09:27:07.524Z,11.8
2022-11-28T09:28:23.930Z,15.3
2022-11-28T09:29:40.346Z,12.5
2022-11-28T09:30:56.767Z,14.2
2022-11-28T09:32:13.166Z,14.7
2022-11-28T09:33:29.585Z,13.1
2022-11-28T09:34:46.000Z,12.2
2022-11-28T09:36:02.391Z,13.8
2022-11-28T09:37:18.815Z,13.4
2022-11-28T09:38:35.225Z,13.6
2022-11-28T09:39:51.623Z,16.4
2022-11-28T09:41:08.033Z,16.4
2022-11-28T09:42:23.580Z,13
2022-11-28T09:43:39.990Z,14.9
2022-11-28T09:44:56.389Z,16
2022-11-28T09:47:29.207Z,10.4
2022-11-28T09:48:44.772Z,12.4
2022-11-28T09:50:01.180Z,14.7
2022-11-28T09:51:17.577Z,84.3
2022-11-28T09:52:33.987Z,65.7
2022-11-28T09:53:50.403Z,15.6
2022-11-28T09:55:06.823Z,16
2022-11-28T09:56:22.354Z,65.8
2022-11-28T09:57:38.763Z,32.7
2022-11-28T09:58:55.169Z,22.5
2022-11-28T10:00:11.570Z,15.8
2022-11-28T10:02:44.388Z,21
2022-11-28T10:04:00.804Z,13.8
2022-11-28T10:05:17.206Z,11.5
2022-11-28T10:06:33.619Z,11.7
2022-11-28T10:10:22.858Z,12.4
2022-11-28T10:12:54.814Z,15.5
2022-11-28T10:14:11.223Z,12.5
2022-11-28T10:15:27.640Z,14.1
2022-11-28T10:16:44.034Z,19.8
2022-11-28T10:19:16.859Z,16.8
2022-11-28T10:20:33.282Z,28.3
2022-11-28T10:21:48.824Z,22
2022-11-28T10:24:21.638Z,23.3
2022-11-28T10:25:37.181Z,16.8
2022-11-28T10:26:53.592Z,16.4
2022-11-28T10:28:09.987Z,19.5
2022-11-28T10:29:26.396Z,22.1
2022-11-28T10:30:42.810Z,22.9
2022-11-28T10:33:15.639Z,27.6
2022-11-28T10:34:32.046Z,14.3
2022-11-28T10:35:48.457Z,30.2
2022-11-28T10:39:37.675Z,31.3
2022-11-28T10:40:54.086Z,29.8
2022-11-28T10:42:10.508Z,38.1
2022-11-28T10:43:26.031Z,26.5
2022-11-28T10:44:42.429Z,37.3
2022-11-28T10:45:58.864Z,26.6
2022-11-28T10:47:15.265Z,44.9
2022-11-28T10:48:31.675Z,31.8
2022-11-28T10:49:48.088Z,20.4
2022-11-28T10:51:04.501Z,14.7
2022-11-28T10:52:20.895Z,53.1
2022-11-28T10:53:37.319Z,43.2
2022-11-28T10:54:53.715Z,22.3
2022-11-28T10:56:10.134Z,28.3
2022-11-28T10:58:42.949Z,19.8
2022-11-28T10:59:58.472Z,14.7
2022-11-28T11:01:14.896Z,16.7
2022-11-28T11:03:47.710Z,11.6
2022-11-28T11:05:04.127Z,12.5
2022-11-28T11:06:20.533Z,13.3
2022-11-28T11:07:36.929Z,14.5
2022-11-28T11:10:09.750Z,12.2
2022-11-28T11:11:26.164Z,16.6
2022-11-28T11:12:42.573Z,15.5
2022-11-28T11:13:58.990Z,12.8
2022-11-28T11:15:15.389Z,14.4
2022-11-28T11:16:31.806Z,13
2022-11-28T11:17:47.335Z,17.4
2022-11-28T11:19:03.749Z,13.5
2022-11-28T11:20:20.147Z,13
2022-11-28T11:21:36.557Z,13.1
2022-11-28T11:22:52.983Z,12.9
2022-11-28T11:24:09.386Z,13.5
2022-11-28T11:26:41.329Z,14.7
2022-11-28T11:29:13.258Z,14
2022-11-28T11:30:28.798Z,13
2022-11-28T11:31:45.211Z,14.9
2022-11-28T11:33:01.614Z,10.7
2022-11-28T11:34:18.031Z,13.3
2022-11-28T11:35:34.428Z,13.8
2022-11-28T11:36:50.848Z,11.1
2022-11-28T11:38:07.247Z,14.4
2022-11-28T11:39:23.664Z,15.2
2022-11-28T11:40:40.084Z,11.2
2022-11-28T11:41:56.490Z,13.7
2022-11-28T11:45:45.716Z,12.5
2022-11-28T11:47:01.241Z,14.3
2022-11-28T11:49:34.073Z,13.3
2022-11-28T11:50:50.464Z,13.9
2022-11-28T11:52:06.880Z,12.5
2022-11-28T11:53:23.300Z,14
2022-11-28T11:54:39.699Z,11.7
2022-11-28T11:55:56.121Z,12.9
2022-11-28T11:57:12.519Z,13.3
2022-11-28T11:59:45.334Z,12.7
2022-11-28T12:01:01.759Z,15.4
2022-11-28T12:02:18.159Z,12.9
2022-11-28T12:06:07.388Z,13.3
2022-11-28T12:07:23.797Z,11
2022-11-28T12:08:40.206Z,15
2022-11-28T12:09:56.624Z,10.9
2022-11-28T12:11:12.159Z,11.4
2022-11-28T12:12:28.563Z,10.9
2022-11-28T12:13:44.976Z,10.7
2022-11-28T12:15:01.372Z,10.4
2022-11-28T12:16:17.784Z,11.7
2022-11-28T12:17:34.183Z,11.3
2022-11-28T12:20:07.008Z,7.7
2022-11-28T12:21:23.435Z,10.8
2022-11-28T12:22:39.818Z,10
2022-11-28T12:23:56.241Z,21.9
2022-11-28T12:25:12.644Z,10.8
2022-11-28T12:26:33.111Z,11.1
2022-11-28T12:27:45.462Z,10.6
2022-11-28T12:29:00.975Z,11.9
2022-11-28T12:30:17.401Z,12.9
2022-11-28T12:31:33.818Z,10
2022-11-28T12:32:50.225Z,9.5
2022-11-28T12:34:05.757Z,9.4
2022-11-28T12:36:37.722Z,8.5
2022-11-28T12:37:54.138Z,9.9
2022-11-28T12:39:10.551Z,9.2
2022-11-28T12:40:26.960Z,10.6
2022-11-28T12:41:43.357Z,11.2
2022-11-28T12:44:16.167Z,9.7
2022-11-28T12:46:49.000Z,12.5
2022-11-28T12:48:05.408Z,23.3
2022-11-28T12:50:38.220Z,13.4
2022-11-28T12:51:54.639Z,11.2
2022-11-28T12:53:11.051Z,12.1
2022-11-28T12:55:43.864Z,11.1
2022-11-28T12:56:59.424Z,9.1
2022-11-28T12:58:14.921Z,8.6
2022-11-28T12:59:31.368Z,10.1
2022-11-28T13:00:47.763Z,8.7
2022-11-28T13:02:04.177Z,8.4
2022-11-28T13:03:20.600Z,12.7
2022-11-28T13:05:53.412Z,13.8
2022-11-28T13:07:09.822Z,9.3
2022-11-28T13:08:26.226Z,11.2
2022-11-28T13:12:15.467Z,11.5
2022-11-28T13:13:31.858Z,9.3
2022-11-28T13:16:04.690Z,8.9
2022-11-28T13:17:20.209Z,9.7
2022-11-28T13:18:36.635Z,10.5
2022-11-28T13:21:09.446Z,13.4
2022-11-28T13:22:25.865Z,12.6
2022-11-28T13:23:42.264Z,10.6
2022-11-28T13:26:15.090Z,12.2
2022-11-28T13:27:31.487Z,12.4
2022-11-28T13:28:47.884Z,9.4
2022-11-28T13:31:20.713Z,10.7
2022-11-28T13:33:53.537Z,11
2022-11-28T13:35:09.078Z,10.5
2022-11-28T13:37:41.890Z,9.4
2022-11-28T13:38:58.298Z,9.8
2022-11-28T13:40:14.699Z,8.5
2022-11-28T13:41:31.117Z,9.9
2022-11-28T13:42:47.523Z,10.4
2022-11-28T13:44:03.921Z,8.3
2022-11-28T13:45:20.346Z,9.5
2022-11-28T13:46:36.769Z,10.9
2022-11-28T13:47:53.168Z,8.9
2022-11-28T13:49:09.563Z,9.8
2022-11-28T13:50:25.986Z,8.2
2022-11-28T13:51:41.523Z,9.6
2022-11-28T13:52:57.941Z,9
2022-11-28T13:54:14.315Z,7.5
2022-11-28T13:55:30.748Z,8.7
2022-11-28T13:56:47.168Z,8.2
2022-11-28T13:58:03.563Z,9.1
2022-11-28T13:59:19.982Z,9.8
2022-11-28T14:00:36.376Z,10.7
2022-11-28T14:01:52.781Z,8.6
2022-11-28T14:03:09.221Z,10.1
2022-11-28T14:04:25.612Z,9.6
2022-11-28T14:05:41.175Z,8.9
2022-11-28T14:06:57.588Z,8.9
2022-11-28T14:08:13.118Z,9.1
2022-11-28T14:09:29.520Z,10.2
2022-11-28T14:10:45.932Z,9
2022-11-28T14:12:02.337Z,9.4
2022-11-28T14:13:18.750Z,7.8
2022-11-28T14:14:35.165Z,11.2
2022-11-28T14:17:07.987Z,9.6
2022-11-28T14:18:24.380Z,8.8
2022-11-28T14:19:40.781Z,10.6
2022-11-28T14:20:57.212Z,10.7
2022-11-28T14:22:13.627Z,9.1
2022-11-28T14:23:30.031Z,7.5
2022-11-28T14:24:46.409Z,9.6
2022-11-28T14:26:01.955Z,9.6
2022-11-28T14:27:18.371Z,9.3
2022-11-28T14:28:34.784Z,10.1
2022-11-28T14:29:51.175Z,11.4
2022-11-28T14:31:07.607Z,7.7
2022-11-28T14:32:24.027Z,10.2
2022-11-28T14:33:40.427Z,11.5
2022-11-28T14:34:56.829Z,35.4
2022-11-28T14:36:12.392Z,21.3
2022-11-28T14:37:27.925Z,10
2022-11-28T14:38:44.334Z,12.4
2022-11-28T14:40:00.745Z,11.4
2022-11-28T14:41:17.134Z,9.8
2022-11-28T14:42:33.556Z,19.4
2022-11-28T14:43:49.979Z,65.8
2022-11-28T14:45:06.370Z,32
2022-11-28T14:47:39.192Z,14.2
2022-11-28T14:48:55.618Z,15.1
2022-11-28T14:50:12.013Z,16.9
2022-11-28T14:51:28.435Z,22.3
2022-11-28T14:52:44.830Z,16.1
2022-11-28T14:54:01.249Z,11.4
2022-11-28T14:55:17.651Z,12.5
2022-11-28T14:56:34.069Z,12.2
2022-11-28T14:57:50.478Z,18
2022-11-28T14:59:06.009Z,13.3
2022-11-28T15:00:22.429Z,9.1
2022-11-28T15:01:38.813Z,9.8
2022-11-28T15:02:55.244Z,11.8
2022-11-28T15:04:11.639Z,11.8
2022-11-28T15:05:28.038Z,9.7
2022-11-28T15:08:00.885Z,10.5
2022-11-28T15:09:17.297Z,12.5
2022-11-28T15:10:33.705Z,7.6
2022-11-28T15:11:50.102Z,11.2
2022-11-28T15:13:06.492Z,9.7
2022-11-28T15:14:22.936Z,9.8
2022-11-28T15:15:39.329Z,10.9
2022-11-28T15:18:11.272Z,11.1
2022-11-28T15:19:27.678Z,9.1
2022-11-28T15:20:44.087Z,11.1
2022-11-28T15:22:00.479Z,11.3
2022-11-28T15:23:16.924Z,11.1
2022-11-28T15:24:33.330Z,10.7
2022-11-28T15:25:49.710Z,10.8
2022-11-28T15:28:22.551Z,11.7
2022-11-28T15:29:38.968Z,10.4
2022-11-28T15:30:54.519Z,9.8
2022-11-28T15:32:10.936Z,10.9
2022-11-28T15:34:43.874Z,13.7
2022-11-28T15:36:00.269Z,14.5
2022-11-28T15:38:33.107Z,12.7
2022-11-28T15:39:49.508Z,11.1
2022-11-28T15:41:05.920Z,16
2022-11-28T15:42:22.336Z,11.7
2022-11-28T15:43:38.712Z,12.7
2022-11-28T15:44:55.151Z,14.9
2022-11-28T15:46:11.568Z,15
2022-11-28T15:48:43.542Z,24.1
2022-11-28T15:49:59.114Z,22.7
2022-11-28T15:51:15.524Z,13
2022-11-28T15:53:47.470Z,15
2022-11-28T15:55:03.868Z,13.5
2022-11-28T15:56:20.284Z,14.7
2022-11-28T15:58:53.093Z,17.6
2022-11-28T16:00:09.481Z,18.1
2022-11-28T16:01:25.924Z,14.9
2022-11-28T16:03:58.732Z,16.1
2022-11-28T16:05:15.147Z,15.3
2022-11-28T16:06:31.566Z,20.2
2022-11-28T16:09:04.374Z,14.7
2022-11-28T16:10:19.891Z,14.7
2022-11-28T16:11:36.326Z,17.1
2022-11-28T16:12:52.742Z,17.1
2022-11-28T16:14:09.140Z,15.7
2022-11-28T16:15:25.544Z,15.2
2022-11-28T16:16:41.960Z,14.8
2022-11-28T16:19:14.787Z,12.8
2022-11-28T16:20:31.175Z,13.1
2022-11-28T16:21:47.605Z,14
2022-11-28T16:23:04.004Z,15.4
2022-11-28T16:24:20.431Z,15.3
2022-11-28T16:25:36.811Z,15.3
2022-11-28T16:26:52.358Z,15.9
2022-11-28T16:29:25.177Z,13.7
2022-11-28T16:30:41.594Z,16.1
2022-11-28T16:31:57.999Z,15.7
2022-11-28T16:33:14.379Z,12.6
2022-11-28T16:34:30.824Z,17.5
2022-11-28T16:35:47.224Z,12.3
2022-11-28T16:37:03.650Z,16
2022-11-28T16:39:36.459Z,22.6
2022-11-28T16:40:52.862Z,18.5
2022-11-28T16:42:09.279Z,16.6
2022-11-28T16:43:25.696Z,16.2
2022-11-28T16:44:41.200Z,18.7
2022-11-28T16:45:57.625Z,17.4
2022-11-28T16:47:14.037Z,23.1
2022-11-28T16:49:46.865Z,38.3
2022-11-28T16:51:03.270Z,20.9
2022-11-28T16:52:19.674Z,23.7
2022-11-28T16:53:36.096Z,24.7
2022-11-28T16:54:52.503Z,22
2022-11-28T16:56:08.905Z,18.8
2022-11-28T16:57:25.320Z,17.9
2022-11-28T16:58:41.735Z,19.9
2022-11-28T16:59:58.133Z,18.6
2022-11-28T17:01:13.671Z,16.9
2022-11-28T17:02:30.087Z,19.4
2022-11-28T17:03:46.495Z,19.7
2022-11-28T17:05:02.899Z,13.8
2022-11-28T17:06:18.426Z,14.2
2022-11-28T17:07:33.960Z,14.9
2022-11-28T17:08:50.389Z,14.8
2022-11-28T17:10:06.799Z,17.9
2022-11-28T17:11:23.217Z,15.4
2022-11-28T17:12:39.622Z,16.4
2022-11-28T17:15:12.438Z,21.6
2022-11-28T17:16:28.847Z,21.9
2022-11-28T17:17:45.254Z,17.8
2022-11-28T17:19:01.664Z,15.6
2022-11-28T17:20:18.076Z,15.7
2022-11-28T17:21:34.500Z,14.2
2022-11-28T17:22:50.903Z,13.4
2022-11-28T17:24:07.309Z,19.3
2022-11-28T17:25:22.847Z,14.9
2022-11-28T17:26:39.231Z,14.6
2022-11-28T17:27:55.673Z,13.9
2022-11-28T17:29:12.054Z,20
2022-11-28T17:30:28.494Z,16.8
2022-11-28T17:31:44.896Z,15.9
2022-11-28T17:33:01.300Z,13.9
2022-11-28T17:34:16.857Z,16.7
2022-11-28T17:35:32.387Z,20.7
2022-11-28T17:36:48.797Z,18
2022-11-28T17:38:05.212Z,22.8
2022-11-28T17:40:38.031Z,27.1
2022-11-28T17:41:54.404Z,18
2022-11-28T17:43:10.840Z,20.2
2022-11-28T17:44:27.264Z,21.2
2022-11-28T17:45:43.661Z,16.4
2022-11-28T17:47:00.067Z,20.2
2022-11-28T17:48:16.493Z,24.7
2022-11-28T17:49:32.901Z,17.7
2022-11-28T17:50:49.298Z,23.5
2022-11-28T17:52:04.837Z,16.2
2022-11-28T17:53:21.241Z,20
2022-11-28T17:55:54.069Z,13.9
2022-11-28T17:57:09.591Z,14.7
2022-11-28T17:58:25.150Z,14.5
2022-11-28T18:00:57.971Z,15.1
2022-11-28T18:02:14.351Z,15.8
2022-11-28T18:03:30.801Z,15.3
2022-11-28T18:04:47.209Z,14.5
2022-11-28T18:06:03.622Z,16.7
2022-11-28T18:07:19.987Z,11.7
2022-11-28T18:08:36.423Z,15.5
2022-11-28T18:09:52.836Z,16.2
2022-11-28T18:11:09.258Z,13.7
2022-11-28T18:12:25.669Z,16.5
2022-11-28T18:13:42.072Z,16.2
2022-11-28T18:16:14.873Z,14.4
2022-11-28T18:17:30.437Z,16.5
2022-11-28T18:18:45.971Z,16.6
2022-11-28T18:20:02.354Z,15.3
2022-11-28T18:21:18.799Z,16.8
2022-11-28T18:22:35.174Z,15.4
2022-11-28T18:23:51.618Z,17.5
2022-11-28T18:25:08.027Z,14.6
2022-11-28T18:26:24.434Z,15.1
2022-11-28T18:27:40.827Z,17.2
2022-11-28T18:28:57.252Z,16.6
2022-11-28T18:30:13.668Z,17.6
2022-11-28T18:31:30.064Z,16.8
2022-11-28T18:32:45.634Z,18.5
2022-11-28T18:34:01.164Z,17.3
2022-11-28T18:35:17.558Z,17.2
2022-11-28T18:36:33.985Z,15.6
2022-11-28T18:37:50.380Z,17.4
2022-11-28T18:39:06.798Z,16.9
2022-11-28T18:40:23.212Z,16.1
2022-11-28T18:42:56.028Z,19.6
2022-11-28T18:44:12.441Z,16
2022-11-28T18:45:28.841Z,17.9
2022-11-28T18:48:01.665Z,18
2022-11-28T18:49:18.084Z,17.3
2022-11-28T18:50:34.631Z,17.1
2022-11-28T18:51:50.158Z,15.3
2022-11-28T18:53:06.567Z,15.1
2022-11-28T18:54:22.985Z,15.8
2022-11-28T18:56:55.800Z,17
2022-11-28T18:58:12.201Z,14.6
2022-11-28T18:59:28.614Z,15.3
2022-11-28T19:00:45.035Z,13.6
2022-11-28T19:02:01.436Z,17.8
2022-11-28T19:03:17.845Z,19.7
2022-11-28T19:05:50.668Z,15.9
2022-11-28T19:07:07.071Z,18.6
2022-11-28T19:08:22.600Z,18.8
2022-11-28T19:09:39.020Z,19.2
2022-11-28T19:12:11.832Z,16.5
2022-11-28T19:13:28.239Z,18.8
2022-11-28T19:14:44.629Z,17.7
2022-11-28T19:16:01.068Z,19.9
2022-11-28T19:17:17.448Z,17.2
2022-11-28T19:18:33.864Z,21.4
2022-11-28T19:19:50.297Z,20.8
2022-11-28T19:22:23.109Z,20.8
2022-11-28T19:23:39.531Z,17
2022-11-28T19:24:55.065Z,17.5
2022-11-28T19:27:27.891Z,16.7
2022-11-28T19:30:00.707Z,16.1
2022-11-28T19:31:17.103Z,17
2022-11-28T19:33:49.936Z,18.2